VA49 weather

Robertson Airport
Hanover, Virginia, United States

Public forecast

Using degrees Fahrenheit for public forecast. Weather courtesy of forecast.io.

METAR (pilot weather report)

Closest report is Hanover County Municipal Airport, 3.1 nm (5.7 km) W. Retrieved 2019/06/18 17:54 UTC (20 minutes ago):

KOFP 181754Z AUTO 30005KT 10SM FEW110 31/21 A2995 RMK AO2 SLP140 T03060206 10306 20244 58010

TAF (pilot weather forecast)

Closest forecast is Richmond International Airport, 12.3 nm (22.7 km) SSE. Retrieved 2019/06/18 18:42 UTC (0 seconds ago):

TAF KRIC 181739Z 1818/1918 22010KT P6SM SCT100 FM182200 23008KT 5SM -SHRA OVC060 TEMPO 1822/1824 4SM TSRA BR OVC035CB FM190000 23005KT P6SM OVC070 TEMPO 1900/1903 4SM SHRA BR OVC035 FM190300 18004KT 5SM -SHRA BR OVC025 FM190800 18003KT P6SM BKN025 FM191500 20004KT P6SM BKN035